sensor_id;sensor_type;location;lat;lon;timestamp;pressure;altitude;pressure_sealevel;temperature;humidity
25084;BME280;13075;55.682;37.564;2023-02-08T00:00:42;102063.47;;;-0.98;100.00
25084;BME280;13075;55.682;37.564;2023-02-08T00:03:08;102069.28;;;-1.12;100.00
25084;BME280;13075;55.682;37.564;2023-02-08T00:05:34;102058.81;;;-1.13;100.00
25084;BME280;13075;55.682;37.564;2023-02-08T00:08:00;102063.38;;;-0.97;100.00
25084;BME280;13075;55.682;37.564;2023-02-08T00:10:26;102064.69;;;-1.07;100.00
25084;BME280;13075;55.682;37.564;2023-02-08T00:12:52;102064.91;;;-1.11;100.00
25084;BME280;13075;55.682;37.564;2023-02-08T00:15:18;102062.38;;;-1.14;100.00
25084;BME280;13075;55.682;37.564;2023-02-08T00:17:43;102060.94;;;-1.21;100.00
25084;BME280;13075;55.682;37.564;2023-02-08T00:20:10;102059.69;;;-1.13;100.00
25084;BME280;13075;55.682;37.564;2023-02-08T00:22:36;102057.03;;;-1.33;100.00
25084;BME280;13075;55.682;37.564;2023-02-08T00:25:04;102056.34;;;-1.16;100.00
25084;BME280;13075;55.682;37.564;2023-02-08T00:27:30;102055.03;;;-1.06;100.00
25084;BME280;13075;55.682;37.564;2023-02-08T00:29:56;102055.16;;;-0.89;100.00
25084;BME280;13075;55.682;37.564;2023-02-08T00:32:22;102057.13;;;-1.14;100.00
25084;BME280;13075;55.682;37.564;2023-02-08T00:34:48;102056.69;;;-1.04;100.00
25084;BME280;13075;55.682;37.564;2023-02-08T00:37:14;102049.66;;;-1.03;100.00
25084;BME280;13075;55.682;37.564;2023-02-08T00:39:40;102040.66;;;-0.98;100.00
25084;BME280;13075;55.682;37.564;2023-02-08T00:42:06;102043.56;;;-1.04;100.00
25084;BME280;13075;55.682;37.564;2023-02-08T00:44:32;102039.59;;;-1.14;100.00
25084;BME280;13075;55.682;37.564;2023-02-08T00:46:57;102043.28;;;-0.98;100.00
25084;BME280;13075;55.682;37.564;2023-02-08T00:49:23;102033.91;;;-1.03;100.00
25084;BME280;13075;55.682;37.564;2023-02-08T00:51:49;102033.69;;;-0.79;100.00
25084;BME280;13075;55.682;37.564;2023-02-08T00:54:17;102035.34;;;-0.96;100.00
25084;BME280;13075;55.682;37.564;2023-02-08T00:56:43;102035.22;;;-0.93;100.00
25084;BME280;13075;55.682;37.564;2023-02-08T00:59:09;102046.84;;;-0.99;100.00
25084;BME280;13075;55.682;37.564;2023-02-08T01:01:35;102040.47;;;-0.93;100.00
25084;BME280;13075;55.682;37.564;2023-02-08T01:04:00;102046.88;;;-1.00;100.00
25084;BME280;13075;55.682;37.564;2023-02-08T01:06:26;102051.31;;;-1.01;100.00
25084;BME280;13075;55.682;37.564;2023-02-08T01:08:52;102047.56;;;-0.75;100.00
25084;BME280;13075;55.682;37.564;2023-02-08T01:11:20;102041.56;;;-0.58;100.00
25084;BME280;13075;55.682;37.564;2023-02-08T01:13:47;102035.69;;;-0.45;100.00
25084;BME280;13075;55.682;37.564;2023-02-08T01:16:18;102035.03;;;-0.50;100.00
25084;BME280;13075;55.682;37.564;2023-02-08T01:18:46;102046.41;;;-0.49;100.00
25084;BME280;13075;55.682;37.564;2023-02-08T01:21:16;102038.41;;;-0.67;100.00
25084;BME280;13075;55.682;37.564;2023-02-08T01:23:42;102034.81;;;-0.45;100.00
25084;BME280;13075;55.682;37.564;2023-02-08T01:26:09;102042.91;;;-0.89;100.00
25084;BME280;13075;55.682;37.564;2023-02-08T01:28:37;102041.78;;;-1.03;100.00
25084;BME280;13075;55.682;37.564;2023-02-08T01:31:08;102038.09;;;-0.99;100.00
25084;BME280;13075;55.682;37.564;2023-02-08T01:33:34;102041.09;;;-1.08;100.00
25084;BME280;13075;55.682;37.564;2023-02-08T01:36:00;102041.25;;;-1.11;100.00
25084;BME280;13075;55.682;37.564;2023-02-08T01:38:26;102047.16;;;-1.06;100.00
25084;BME280;13075;55.682;37.564;2023-02-08T01:40:51;102035.78;;;-0.87;100.00
25084;BME280;13075;55.682;37.564;2023-02-08T01:43:26;102030.47;;;-0.65;100.00
25084;BME280;13075;55.682;37.564;2023-02-08T01:45:52;102037.31;;;-0.81;100.00
25084;BME280;13075;55.682;37.564;2023-02-08T01:48:27;102034.34;;;-0.74;100.00
25084;BME280;13075;55.682;37.564;2023-02-08T01:51:02;102036.66;;;-0.86;100.00
25084;BME280;13075;55.682;37.564;2023-02-08T01:53:30;102045.28;;;-0.83;100.00
25084;BME280;13075;55.682;37.564;2023-02-08T01:56:01;102048.81;;;-1.04;100.00
25084;BME280;13075;55.682;37.564;2023-02-08T01:58:29;102036.91;;;-0.92;100.00
25084;BME280;13075;55.682;37.564;2023-02-08T02:00:57;102048.06;;;-0.87;100.00
25084;BME280;13075;55.682;37.564;2023-02-08T02:03:23;102038.22;;;-0.82;100.00
25084;BME280;13075;55.682;37.564;2023-02-08T02:05:57;102044.34;;;-1.02;100.00
25084;BME280;13075;55.682;37.564;2023-02-08T02:08:26;102029.16;;;-0.95;100.00
25084;BME280;13075;55.682;37.564;2023-02-08T02:10:52;102031.28;;;-1.03;100.00
25084;BME280;13075;55.682;37.564;2023-02-08T02:13:24;102031.84;;;-1.37;100.00
25084;BME280;13075;55.682;37.564;2023-02-08T02:15:51;102034.03;;;-1.06;100.00
25084;BME280;13075;55.682;37.564;2023-02-08T02:18:24;102034.47;;;-1.17;100.00
25084;BME280;13075;55.682;37.564;2023-02-08T02:24:09;102026.72;;;-1.20;100.00
25084;BME280;13075;55.682;37.564;2023-02-08T02:27:39;102024.22;;;-1.03;100.00
25084;BME280;13075;55.682;37.564;2023-02-08T02:42:00;102029.97;;;-0.93;100.00
25084;BME280;13075;55.682;37.564;2023-02-08T02:51:12;102047.34;;;-1.11;100.00
25084;BME280;13075;55.682;37.564;2023-02-08T02:56:36;102035.13;;;-0.92;100.00
25084;BME280;13075;55.682;37.564;2023-02-08T02:59:05;102042.41;;;-1.18;100.00
25084;BME280;13075;55.682;37.564;2023-02-08T03:01:32;102042.81;;;-1.28;100.00
25084;BME280;13075;55.682;37.564;2023-02-08T03:03:58;102042.38;;;-0.97;100.00
25084;BME280;13075;55.682;37.564;2023-02-08T03:11:59;102036.38;;;-1.00;100.00
25084;BME280;13075;55.682;37.564;2023-02-08T03:14:34;102029.91;;;-1.34;100.00
25084;BME280;13075;55.682;37.564;2023-02-08T03:17:18;102039.28;;;-1.06;100.00
25084;BME280;13075;55.682;37.564;2023-02-08T03:20:09;102032.97;;;-0.62;100.00
25084;BME280;13075;55.682;37.564;2023-02-08T03:28:14;102011.59;;;-0.75;100.00
25084;BME280;13075;55.682;37.564;2023-02-08T03:31:34;102021.47;;;-1.00;100.00
25084;BME280;13075;55.682;37.564;2023-02-08T03:36:49;102008.13;;;-0.95;100.00
25084;BME280;13075;55.682;37.564;2023-02-08T03:39:24;102006.25;;;-0.92;100.00
25084;BME280;13075;55.682;37.564;2023-02-08T03:41:53;102000.47;;;-0.61;100.00
25084;BME280;13075;55.682;37.564;2023-02-08T03:44:33;101982.56;;;-0.72;100.00
25084;BME280;13075;55.682;37.564;2023-02-08T03:47:06;101997.41;;;-0.71;100.00
25084;BME280;13075;55.682;37.564;2023-02-08T03:49:35;101991.25;;;-0.90;100.00
25084;BME280;13075;55.682;37.564;2023-02-08T03:52:04;101992.28;;;-0.74;100.00
25084;BME280;13075;55.682;37.564;2023-02-08T03:54:34;102002.19;;;-0.60;100.00
25084;BME280;13075;55.682;37.564;2023-02-08T03:57:21;101989.34;;;-0.86;100.00
25084;BME280;13075;55.682;37.564;2023-02-08T03:59:59;101981.50;;;-0.49;100.00
25084;BME280;13075;55.682;37.564;2023-02-08T04:02:28;101976.63;;;-0.38;100.00
25084;BME280;13075;55.682;37.564;2023-02-08T04:04:56;101972.50;;;-0.25;100.00
25084;BME280;13075;55.682;37.564;2023-02-08T04:07:23;101970.72;;;-0.24;100.00
25084;BME280;13075;55.682;37.564;2023-02-08T04:09:49;101953.53;;;-0.31;100.00
25084;BME280;13075;55.682;37.564;2023-02-08T04:12:14;101957.16;;;-0.34;100.00
25084;BME280;13075;55.682;37.564;2023-02-08T04:14:40;101967.44;;;-0.48;100.00
25084;BME280;13075;55.682;37.564;2023-02-08T04:17:05;101973.75;;;-0.71;100.00
25084;BME280;13075;55.682;37.564;2023-02-08T04:19:31;101967.91;;;-0.77;100.00
25084;BME280;13075;55.682;37.564;2023-02-08T04:21:57;101958.69;;;-0.67;100.00
25084;BME280;13075;55.682;37.564;2023-02-08T04:24:23;101954.69;;;-0.37;100.00
25084;BME280;13075;55.682;37.564;2023-02-08T04:26:48;101967.69;;;-0.52;100.00
25084;BME280;13075;55.682;37.564;2023-02-08T04:29:14;101968.81;;;-0.58;100.00
25084;BME280;13075;55.682;37.564;2023-02-08T04:31:40;101963.69;;;-0.42;100.00
25084;BME280;13075;55.682;37.564;2023-02-08T04:34:05;101962.19;;;-0.11;100.00
25084;BME280;13075;55.682;37.564;2023-02-08T04:36:31;101956.22;;;-0.14;100.00
25084;BME280;13075;55.682;37.564;2023-02-08T04:38:57;101958.72;;;-0.11;100.00
25084;BME280;13075;55.682;37.564;2023-02-08T04:41:22;101958.94;;;-0.34;100.00
25084;BME280;13075;55.682;37.564;2023-02-08T04:43:48;101959.00;;;-0.54;100.00
25084;BME280;13075;55.682;37.564;2023-02-08T04:46:13;101946.69;;;-0.35;100.00
25084;BME280;13075;55.682;37.564;2023-02-08T04:48:39;101955.78;;;-0.61;100.00
25084;BME280;13075;55.682;37.564;2023-02-08T04:51:05;101942.88;;;-0.47;100.00
25084;BME280;13075;55.682;37.564;2023-02-08T04:53:31;101954.03;;;-0.60;100.00
25084;BME280;13075;55.682;37.564;2023-02-08T04:55:56;101949.50;;;-0.03;100.00
25084;BME280;13075;55.682;37.564;2023-02-08T04:58:22;101947.69;;;-0.38;100.00
25084;BME280;13075;55.682;37.564;2023-02-08T05:00:48;101958.38;;;-0.59;100.00
25084;BME280;13075;55.682;37.564;2023-02-08T05:03:14;101940.31;;;-0.30;100.00
25084;BME280;13075;55.682;37.564;2023-02-08T05:05:40;101943.66;;;-0.26;100.00
25084;BME280;13075;55.682;37.564;2023-02-08T05:08:06;101930.28;;;-0.40;100.00
25084;BME280;13075;55.682;37.564;2023-02-08T05:10:31;101950.13;;;-0.52;100.00
25084;BME280;13075;55.682;37.564;2023-02-08T05:12:57;101932.00;;;-0.39;100.00
25084;BME280;13075;55.682;37.564;2023-02-08T05:15:23;101941.44;;;-0.17;100.00
25084;BME280;13075;55.682;37.564;2023-02-08T05:17:48;101935.13;;;-0.31;100.00
25084;BME280;13075;55.682;37.564;2023-02-08T05:20:14;101938.09;;;-0.20;100.00
25084;BME280;13075;55.682;37.564;2023-02-08T05:22:40;101933.19;;;-0.46;100.00
25084;BME280;13075;55.682;37.564;2023-02-08T05:25:06;101926.94;;;-0.44;100.00
25084;BME280;13075;55.682;37.564;2023-02-08T05:27:33;101924.13;;;-0.04;100.00
25084;BME280;13075;55.682;37.564;2023-02-08T05:29:59;101913.53;;;-0.02;100.00
25084;BME280;13075;55.682;37.564;2023-02-08T05:32:25;101930.41;;;-0.06;100.00
25084;BME280;13075;55.682;37.564;2023-02-08T05:34:51;101938.91;;;-0.37;100.00
25084;BME280;13075;55.682;37.564;2023-02-08T05:37:17;101932.28;;;-0.27;100.00
25084;BME280;13075;55.682;37.564;2023-02-08T05:39:42;101932.03;;;-0.04;100.00
25084;BME280;13075;55.682;37.564;2023-02-08T05:42:08;101930.88;;;-0.34;100.00
25084;BME280;13075;55.682;37.564;2023-02-08T05:44:34;101934.50;;;-0.01;100.00
25084;BME280;13075;55.682;37.564;2023-02-08T05:46:59;101936.78;;;0.07;100.00
25084;BME280;13075;55.682;37.564;2023-02-08T05:49:26;101937.69;;;0.06;100.00
25084;BME280;13075;55.682;37.564;2023-02-08T05:51:51;101932.00;;;0.15;100.00
25084;BME280;13075;55.682;37.564;2023-02-08T05:54:17;101929.34;;;0.15;100.00
25084;BME280;13075;55.682;37.564;2023-02-08T05:56:43;101933.13;;;0.10;100.00
25084;BME280;13075;55.682;37.564;2023-02-08T05:59:09;101937.34;;;0.31;100.00
25084;BME280;13075;55.682;37.564;2023-02-08T06:01:35;101923.47;;;0.27;100.00
25084;BME280;13075;55.682;37.564;2023-02-08T06:04:01;101925.31;;;0.08;100.00
25084;BME280;13075;55.682;37.564;2023-02-08T06:06:26;101913.47;;;-0.01;100.00
25084;BME280;13075;55.682;37.564;2023-02-08T06:08:52;101911.22;;;0.09;100.00
25084;BME280;13075;55.682;37.564;2023-02-08T06:11:18;101918.22;;;0.10;100.00
25084;BME280;13075;55.682;37.564;2023-02-08T06:13:44;101921.66;;;-0.07;100.00
25084;BME280;13075;55.682;37.564;2023-02-08T06:16:13;101919.41;;;0.03;100.00
25084;BME280;13075;55.682;37.564;2023-02-08T06:18:39;101918.03;;;0.13;100.00
25084;BME280;13075;55.682;37.564;2023-02-08T06:21:05;101918.34;;;0.07;100.00
25084;BME280;13075;55.682;37.564;2023-02-08T06:23:31;101912.41;;;-0.15;100.00
25084;BME280;13075;55.682;37.564;2023-02-08T06:25:56;101911.75;;;-0.02;100.00
25084;BME280;13075;55.682;37.564;2023-02-08T06:28:22;101915.72;;;0.24;100.00
25084;BME280;13075;55.682;37.564;2023-02-08T06:30:49;101917.31;;;0.28;100.00
25084;BME280;13075;55.682;37.564;2023-02-08T06:33:15;101916.81;;;0.20;100.00
25084;BME280;13075;55.682;37.564;2023-02-08T06:35:45;101917.88;;;-0.01;100.00
25084;BME280;13075;55.682;37.564;2023-02-08T06:38:12;101913.56;;;0.32;100.00
25084;BME280;13075;55.682;37.564;2023-02-08T06:40:38;101906.38;;;0.36;100.00
25084;BME280;13075;55.682;37.564;2023-02-08T06:43:04;101898.69;;;0.31;100.00
25084;BME280;13075;55.682;37.564;2023-02-08T06:45:30;101896.72;;;0.00;100.00
25084;BME280;13075;55.682;37.564;2023-02-08T06:47:55;101901.09;;;0.19;100.00
25084;BME280;13075;55.682;37.564;2023-02-08T06:50:21;101901.34;;;0.48;100.00
25084;BME280;13075;55.682;37.564;2023-02-08T06:52:46;101891.34;;;0.38;100.00
25084;BME280;13075;55.682;37.564;2023-02-08T06:55:12;101886.47;;;0.47;100.00
25084;BME280;13075;55.682;37.564;2023-02-08T06:57:38;101896.44;;;0.58;100.00
25084;BME280;13075;55.682;37.564;2023-02-08T07:00:05;101894.03;;;0.71;100.00
25084;BME280;13075;55.682;37.564;2023-02-08T07:02:31;101886.19;;;0.86;100.00
25084;BME280;13075;55.682;37.564;2023-02-08T07:04:57;101891.00;;;0.78;100.00
25084;BME280;13075;55.682;37.564;2023-02-08T07:07:22;101890.13;;;0.78;100.00
25084;BME280;13075;55.682;37.564;2023-02-08T07:09:48;101896.50;;;0.74;100.00
25084;BME280;13075;55.682;37.564;2023-02-08T07:12:14;101896.06;;;0.66;100.00
25084;BME280;13075;55.682;37.564;2023-02-08T07:14:41;101879.38;;;0.82;100.00
25084;BME280;13075;55.682;37.564;2023-02-08T07:17:08;101878.91;;;1.07;100.00
25084;BME280;13075;55.682;37.564;2023-02-08T07:19:34;101882.81;;;1.00;100.00
25084;BME280;13075;55.682;37.564;2023-02-08T07:21:59;101874.81;;;1.01;100.00
25084;BME280;13075;55.682;37.564;2023-02-08T07:24:29;101892.03;;;0.58;100.00
25084;BME280;13075;55.682;37.564;2023-02-08T07:26:55;101886.38;;;0.99;100.00
25084;BME280;13075;55.682;37.564;2023-02-08T07:29:21;101884.66;;;0.82;100.00
25084;BME280;13075;55.682;37.564;2023-02-08T07:31:46;101885.09;;;1.06;100.00
25084;BME280;13075;55.682;37.564;2023-02-08T07:34:12;101886.53;;;1.44;100.00
25084;BME280;13075;55.682;37.564;2023-02-08T07:36:37;101884.44;;;1.02;100.00
25084;BME280;13075;55.682;37.564;2023-02-08T07:39:03;101889.13;;;1.13;100.00
25084;BME280;13075;55.682;37.564;2023-02-08T07:41:28;101887.88;;;1.20;100.00
25084;BME280;13075;55.682;37.564;2023-02-08T07:43:54;101888.09;;;1.00;100.00
25084;BME280;13075;55.682;37.564;2023-02-08T07:46:20;101882.41;;;1.07;100.00
25084;BME280;13075;55.682;37.564;2023-02-08T07:48:47;101887.53;;;0.93;100.00
25084;BME280;13075;55.682;37.564;2023-02-08T07:51:17;101879.31;;;0.99;100.00
25084;BME280;13075;55.682;37.564;2023-02-08T07:53:43;101872.59;;;0.94;100.00
25084;BME280;13075;55.682;37.564;2023-02-08T07:56:09;101872.75;;;0.91;100.00
25084;BME280;13075;55.682;37.564;2023-02-08T07:58:36;101873.97;;;0.68;100.00
25084;BME280;13075;55.682;37.564;2023-02-08T08:01:01;101866.66;;;1.06;100.00
25084;BME280;13075;55.682;37.564;2023-02-08T08:03:27;101865.84;;;1.05;100.00
25084;BME280;13075;55.682;37.564;2023-02-08T08:05:53;101869.28;;;0.90;100.00
25084;BME280;13075;55.682;37.564;2023-02-08T08:08:19;101860.38;;;0.76;100.00
25084;BME280;13075;55.682;37.564;2023-02-08T08:10:44;101859.81;;;1.35;100.00
25084;BME280;13075;55.682;37.564;2023-02-08T08:13:11;101859.81;;;1.35;100.00
25084;BME280;13075;55.682;37.564;2023-02-08T08:15:38;101859.47;;;1.72;100.00
25084;BME280;13075;55.682;37.564;2023-02-08T08:18:04;101856.41;;;1.17;100.00
25084;BME280;13075;55.682;37.564;2023-02-08T08:20:30;101856.47;;;1.00;100.00
25084;BME280;13075;55.682;37.564;2023-02-08T08:22:55;101853.91;;;1.14;100.00
25084;BME280;13075;55.682;37.564;2023-02-08T08:25:21;101852.72;;;1.04;100.00
25084;BME280;13075;55.682;37.564;2023-02-08T08:27:47;101851.34;;;0.97;100.00
25084;BME280;13075;55.682;37.564;2023-02-08T08:30:15;101837.03;;;1.18;100.00
25084;BME280;13075;55.682;37.564;2023-02-08T08:32:41;101837.09;;;1.16;100.00
25084;BME280;13075;55.682;37.564;2023-02-08T08:35:07;101837.66;;;1.68;100.00
25084;BME280;13075;55.682;37.564;2023-02-08T08:37:33;101828.69;;;1.57;100.00
25084;BME280;13075;55.682;37.564;2023-02-08T08:39:59;101839.06;;;1.29;100.00
25084;BME280;13075;55.682;37.564;2023-02-08T08:42:24;101832.34;;;1.54;100.00
25084;BME280;13075;55.682;37.564;2023-02-08T08:44:54;101838.88;;;1.00;100.00
25084;BME280;13075;55.682;37.564;2023-02-08T08:47:20;101824.66;;;1.50;100.00
25084;BME280;13075;55.682;37.564;2023-02-08T08:49:45;101825.88;;;1.44;100.00
25084;BME280;13075;55.682;37.564;2023-02-08T08:52:12;101821.97;;;1.36;100.00
25084;BME280;13075;55.682;37.564;2023-02-08T08:54:38;101823.56;;;1.22;100.00
25084;BME280;13075;55.682;37.564;2023-02-08T08:57:04;101819.22;;;1.53;100.00
25084;BME280;13075;55.682;37.564;2023-02-08T08:59:30;101827.22;;;1.67;100.00
25084;BME280;13075;55.682;37.564;2023-02-08T09:01:56;101831.78;;;1.79;100.00
25084;BME280;13075;55.682;37.564;2023-02-08T09:04:21;101822.22;;;1.92;100.00
25084;BME280;13075;55.682;37.564;2023-02-08T09:06:51;101808.13;;;2.07;100.00
25084;BME280;13075;55.682;37.564;2023-02-08T09:09:18;101810.13;;;2.18;100.00
25084;BME280;13075;55.682;37.564;2023-02-08T09:11:43;101807.06;;;2.39;100.00
25084;BME280;13075;55.682;37.564;2023-02-08T09:14:09;101800.91;;;2.25;100.00
25084;BME280;13075;55.682;37.564;2023-02-08T09:16:35;101788.22;;;2.60;100.00
25084;BME280;13075;55.682;37.564;2023-02-08T09:19:05;101790.38;;;2.39;100.00
25084;BME280;13075;55.682;37.564;2023-02-08T09:21:31;101780.69;;;2.10;100.00
25084;BME280;13075;55.682;37.564;2023-02-08T09:23:57;101765.16;;;2.33;100.00
25084;BME280;13075;55.682;37.564;2023-02-08T09:26:23;101773.69;;;2.53;100.00
25084;BME280;13075;55.682;37.564;2023-02-08T09:28:49;101770.16;;;2.66;100.00
25084;BME280;13075;55.682;37.564;2023-02-08T09:31:27;101761.31;;;2.81;100.00
25084;BME280;13075;55.682;37.564;2023-02-08T09:33:55;101753.94;;;2.86;100.00
25084;BME280;13075;55.682;37.564;2023-02-08T09:36:22;101771.59;;;3.27;100.00
25084;BME280;13075;55.682;37.564;2023-02-08T09:38:49;101759.66;;;2.93;100.00
25084;BME280;13075;55.682;37.564;2023-02-08T09:41:40;101764.59;;;2.85;100.00
25084;BME280;13075;55.682;37.564;2023-02-08T09:45:03;101771.66;;;2.98;100.00
25084;BME280;13075;55.682;37.564;2023-02-08T09:47:34;101765.44;;;2.85;100.00
25084;BME280;13075;55.682;37.564;2023-02-08T09:51:04;101760.94;;;2.73;100.00
25084;BME280;13075;55.682;37.564;2023-02-08T09:53:20;101761.88;;;2.86;100.00
25084;BME280;13075;55.682;37.564;2023-02-08T09:55:58;101750.84;;;2.51;100.00
25084;BME280;13075;55.682;37.564;2023-02-08T09:58:35;101748.66;;;2.44;100.00
25084;BME280;13075;55.682;37.564;2023-02-08T10:01:04;101746.47;;;2.79;100.00
25084;BME280;13075;55.682;37.564;2023-02-08T10:03:40;101745.19;;;2.58;100.00
25084;BME280;13075;55.682;37.564;2023-02-08T10:06:11;101739.78;;;2.59;100.00
25084;BME280;13075;55.682;37.564;2023-02-08T10:08:37;101755.56;;;2.46;100.00
25084;BME280;13075;55.682;37.564;2023-02-08T10:11:38;101748.59;;;3.00;100.00
25084;BME280;13075;55.682;37.564;2023-02-08T10:14:29;101740.16;;;2.81;100.00
25084;BME280;13075;55.682;37.564;2023-02-08T10:28:41;101715.69;;;3.45;100.00
25084;BME280;13075;55.682;37.564;2023-02-08T10:34:24;101697.78;;;4.01;100.00
25084;BME280;13075;55.682;37.564;2023-02-08T10:36:53;101694.91;;;3.78;100.00
25084;BME280;13075;55.682;37.564;2023-02-08T10:39:26;101689.22;;;3.97;100.00
25084;BME280;13075;55.682;37.564;2023-02-08T10:41:52;101695.94;;;3.63;100.00
25084;BME280;13075;55.682;37.564;2023-02-08T10:44:35;101684.00;;;3.83;100.00
25084;BME280;13075;55.682;37.564;2023-02-08T10:47:19;101683.78;;;4.24;100.00
25084;BME280;13075;55.682;37.564;2023-02-08T10:49:59;101685.16;;;4.42;100.00
25084;BME280;13075;55.682;37.564;2023-02-08T10:52:27;101679.31;;;4.37;100.00
25084;BME280;13075;55.682;37.564;2023-02-08T10:54:54;101683.06;;;4.22;100.00
25084;BME280;13075;55.682;37.564;2023-02-08T10:57:28;101672.34;;;4.23;100.00
25084;BME280;13075;55.682;37.564;2023-02-08T11:00:00;101698.22;;;4.20;100.00
25084;BME280;13075;55.682;37.564;2023-02-08T11:02:30;101696.34;;;3.57;100.00
25084;BME280;13075;55.682;37.564;2023-02-08T11:07:29;101696.59;;;3.28;100.00
25084;BME280;13075;55.682;37.564;2023-02-08T11:12:59;101700.84;;;3.30;100.00
25084;BME280;13075;55.682;37.564;2023-02-08T11:15:30;101695.84;;;2.99;100.00
25084;BME280;13075;55.682;37.564;2023-02-08T11:17:59;101697.47;;;3.14;100.00
25084;BME280;13075;55.682;37.564;2023-02-08T11:20:34;101696.38;;;3.04;100.00
25084;BME280;13075;55.682;37.564;2023-02-08T11:23:03;101700.22;;;3.12;100.00
25084;BME280;13075;55.682;37.564;2023-02-08T11:25:35;101698.84;;;3.46;100.00
25084;BME280;13075;55.682;37.564;2023-02-08T11:28:02;101692.59;;;3.35;100.00
25084;BME280;13075;55.682;37.564;2023-02-08T11:30:28;101695.09;;;3.63;100.00
25084;BME280;13075;55.682;37.564;2023-02-08T11:33:18;101684.72;;;3.72;100.00
25084;BME280;13075;55.682;37.564;2023-02-08T11:36:03;101680.16;;;3.62;100.00
25084;BME280;13075;55.682;37.564;2023-02-08T11:38:32;101680.66;;;3.15;100.00
25084;BME280;13075;55.682;37.564;2023-02-08T11:41:01;101679.81;;;2.88;100.00
25084;BME280;13075;55.682;37.564;2023-02-08T11:43:30;101677.34;;;2.85;100.00
25084;BME280;13075;55.682;37.564;2023-02-08T11:45:58;101654.66;;;2.68;100.00
25084;BME280;13075;55.682;37.564;2023-02-08T11:48:42;101662.38;;;3.12;100.00
25084;BME280;13075;55.682;37.564;2023-02-08T11:53:50;101661.59;;;3.37;100.00
25084;BME280;13075;55.682;37.564;2023-02-08T11:56:21;101659.28;;;3.45;100.00
25084;BME280;13075;55.682;37.564;2023-02-08T12:01:36;101646.31;;;4.05;100.00
25084;BME280;13075;55.682;37.564;2023-02-08T12:04:05;101636.97;;;3.99;100.00
25084;BME280;13075;55.682;37.564;2023-02-08T12:14:57;101638.06;;;3.20;100.00
25084;BME280;13075;55.682;37.564;2023-02-08T12:20:39;101632.66;;;2.94;100.00
25084;BME280;13075;55.682;37.564;2023-02-08T12:28:24;101624.28;;;2.88;100.00
25084;BME280;13075;55.682;37.564;2023-02-08T12:31:28;101606.19;;;2.55;100.00
25084;BME280;13075;55.682;37.564;2023-02-08T12:36:36;101623.94;;;2.80;100.00
25084;BME280;13075;55.682;37.564;2023-02-08T12:39:07;101617.44;;;2.71;100.00
25084;BME280;13075;55.682;37.564;2023-02-08T12:45:06;101612.03;;;2.60;100.00
25084;BME280;13075;55.682;37.564;2023-02-08T12:53:30;101587.38;;;3.26;100.00
25084;BME280;13075;55.682;37.564;2023-02-08T12:56:01;101603.69;;;3.32;100.00
25084;BME280;13075;55.682;37.564;2023-02-08T12:58:47;101592.94;;;3.08;100.00
25084;BME280;13075;55.682;37.564;2023-02-08T13:01:36;101580.13;;;3.02;100.00
25084;BME280;13075;55.682;37.564;2023-02-08T13:04:11;101601.41;;;3.01;100.00
25084;BME280;13075;55.682;37.564;2023-02-08T13:06:47;101578.44;;;3.01;100.00
25084;BME280;13075;55.682;37.564;2023-02-08T13:12:33;101577.88;;;2.57;100.00
25084;BME280;13075;55.682;37.564;2023-02-08T13:15:11;101576.91;;;2.85;100.00
25084;BME280;13075;55.682;37.564;2023-02-08T13:20:43;101578.25;;;3.04;100.00
25084;BME280;13075;55.682;37.564;2023-02-08T13:23:25;101577.03;;;2.83;100.00
25084;BME280;13075;55.682;37.564;2023-02-08T13:26:05;101576.94;;;2.58;100.00
25084;BME280;13075;55.682;37.564;2023-02-08T13:28:32;101573.19;;;2.75;100.00
25084;BME280;13075;55.682;37.564;2023-02-08T13:31:01;101565.84;;;3.05;100.00
25084;BME280;13075;55.682;37.564;2023-02-08T13:33:38;101569.13;;;2.96;100.00
25084;BME280;13075;55.682;37.564;2023-02-08T13:36:29;101563.22;;;2.39;100.00
25084;BME280;13075;55.682;37.564;2023-02-08T13:38:57;101560.31;;;2.56;100.00
25084;BME280;13075;55.682;37.564;2023-02-08T13:41:24;101553.28;;;2.69;100.00
25084;BME280;13075;55.682;37.564;2023-02-08T13:43:56;101550.88;;;2.79;100.00
25084;BME280;13075;55.682;37.564;2023-02-08T13:46:26;101541.97;;;2.67;100.00
25084;BME280;13075;55.682;37.564;2023-02-08T13:48:57;101537.16;;;2.47;100.00
25084;BME280;13075;55.682;37.564;2023-02-08T13:56:40;101538.13;;;2.59;100.00
25084;BME280;13075;55.682;37.564;2023-02-08T13:59:28;101545.69;;;2.50;100.00
25084;BME280;13075;55.682;37.564;2023-02-08T14:04:48;101550.72;;;2.55;100.00
25084;BME280;13075;55.682;37.564;2023-02-08T14:07:37;101555.44;;;2.50;100.00
25084;BME280;13075;55.682;37.564;2023-02-08T14:10:24;101544.41;;;2.43;100.00
25084;BME280;13075;55.682;37.564;2023-02-08T14:15:38;101560.81;;;2.22;100.00
25084;BME280;13075;55.682;37.564;2023-02-08T14:18:24;101563.22;;;2.25;100.00
25084;BME280;13075;55.682;37.564;2023-02-08T14:21:05;101554.66;;;2.21;100.00
25084;BME280;13075;55.682;37.564;2023-02-08T14:23:35;101543.88;;;2.38;100.00
25084;BME280;13075;55.682;37.564;2023-02-08T14:26:07;101553.56;;;2.11;100.00
25084;BME280;13075;55.682;37.564;2023-02-08T14:28:44;101557.78;;;2.14;100.00
25084;BME280;13075;55.682;37.564;2023-02-08T14:31:12;101542.41;;;2.20;100.00
25084;BME280;13075;55.682;37.564;2023-02-08T14:33:50;101554.13;;;2.16;100.00
25084;BME280;13075;55.682;37.564;2023-02-08T14:41:50;101559.22;;;2.19;100.00
25084;BME280;13075;55.682;37.564;2023-02-08T14:50:18;101560.94;;;2.06;100.00